Main page
METAR-TAF:

METAR-TAF

Airports :

Varna Airport

Varna, Bulgaria

latitude: 43-12N, longitude: 027-55E, elevation: 41 m

Current weather observation

The report was made 5 minutes ago, at 02:00 UTC
Wind 2 kt from variable directions
Temperature 0°C
Humidity 86%
Pressure 1025 hPa
Visibility 10 km or more
no clouds below 1500 m and no cumulonimbus

METAR: LBWN 110200Z VRB02KT CAVOK M00/M02 Q1025 NOSIG

Time: 05:05 (02:05 UTC)

Forecast

The report was made 3 hours and 5 minutes ago, at 23:00 UTC
Forecast valid from 11 at 00 UTC to 11 at 24 UTC
Wind 4 kt from variable directions
Visibility 10 km or more
no clouds below 1500 m and no cumulonimbus
Temporary
from 11 at 02 UTC to 11 at 06 UTC
Visibility: 5000 m
mist
Becoming
from 11 at 09 UTC to 11 at 11 UTC
Wind 12 kt from the East/Southeast

TAF: LBWN 102300Z 1100/1124 VRB04KT CAVOK TEMPO 1102/1106 5000 BR NSC BECMG 1109/1111 11012KT

Weather observations and forecasts of more than 4000 airports (METAR and TAF reports).

The available stations are represented by yellow and red dots on the map.

Hover mouse over dot to see the name of the station.

Then click to see weather observations and forecasts.

To change the map : click on the green buttons with a black cross to zoom in, on the green button with a dash to zoom out, or on the green arrows for adjacent maps.


METAR-TAF: